Reynosa, México

8:15 PM CST en Diciembre 18, 2014 (GMT -0600)
RAWS SANTA ANA NWR TX US | Change Station
CLOSE
Current Station
Estación meteorológica personal
Location: Hidalgo, TX
Altura: 89 ft
Estaciones meteorológicas cercanas

Alt 89 ft 26.08 °N, 98.16 °W | Updated 30 minutes ago

Nublado
Nublado
63 ° F
Sensación térmica 63 ° F
N
3
Viento Variable Viento desde ONO
Gusts 7.0 mph

Hoy
Alta -- | Baja -- ° F
--% Posibilidad de precipitaciones
Ayer
Alta -- | Baja -- ° F
Precip. -- pul
7:14 AM 5:45 PM
Creciente menguante, 11% visible
Presión 30.01 pul
Visibilidad 2.0 Millas
Nubes Nubes dispersas 300 ft
Nublado 1600 ft
Punto de rocío 63 ° F
Humedad 100%
Precipitaciones 0.09 pul
Espesor de la nieve No disponible.
UV 0 de una escala de 12
Polen No disponible.
Calidad del aire No disponible.
Flu Activity No disponible.
SPECI KMFE 190201Z 28004KT 2SM RA BR SCT003 OVC016 17/17 A3001 RMK AO2 P0001 T01720167

More Conditions Fewer Conditions

Presión 30.01 pul
Visibilidad 2.0 Millas
Nubes Nubes dispersas 300 ft
Nublado 1600 ft
Punto de rocío 63 ° F
Humedad 100%
Precipitaciones 0.09 pul
Espesor de la nieve No disponible.
UV 0 de una escala de 12
Polen No disponible.
Calidad del aire No disponible.
Flu Activity No disponible.
SPECI KMFE 190201Z 28004KT 2SM RA BR SCT003 OVC016 17/17 A3001 RMK AO2 P0001 T01720167

More Conditions Fewer Conditions

10-Day Weather Forecast

Almanac

Astronomía

Dec. 18, 2014 Salida Puesta
Hora real
Crepúsculo civil
Crepúsculo náutico
Crepúsculo astronómico
Luna
Horas de luz
Horas de luz
Tomorrow will be .
, % of the Moon is Illuminated

Extremos de hoy

Máximos del país Bajas del país

Community

WunderPhotos

Upload Photos

1,779,036 ¡fotos cargadas!

WunderBlogs® & News

Nearby

Calidad del aire

  Calidad del aire Índice AQ Contaminante
Not available.

Grosos de nieve

Estación Profundido Altura

Actividad de terremotos

Ciudad Distance Mag. Tiempo y dato
Magnitud mínima muestra es 2,5.

Temperaturas de aguas costeras

Lugar Temperatura

Estaciones meteorológicas cercanas